sensor_id;sensor_type;location;lat;lon;timestamp;temperature;humidity
68844;DHT22;55850;51.244;6.824;2022-09-09T00:01:33;18.18;73.06
68844;DHT22;55850;51.244;6.824;2022-09-09T00:06:45;18.10;72.92
68844;DHT22;55850;51.244;6.824;2022-09-09T00:11:58;18.23;72.81
68844;DHT22;55850;51.244;6.824;2022-09-09T00:17:11;17.96;73.73
68844;DHT22;55850;51.244;6.824;2022-09-09T00:22:19;18.00;73.32
68844;DHT22;55850;51.244;6.824;2022-09-09T00:27:32;18.13;72.87
68844;DHT22;55850;51.244;6.824;2022-09-09T00:32:40;18.04;73.09
68844;DHT22;55850;51.244;6.824;2022-09-09T00:37:47;18.14;73.09
68844;DHT22;55850;51.244;6.824;2022-09-09T00:43:12;18.21;73.19
68844;DHT22;55850;51.244;6.824;2022-09-09T00:48:30;18.01;73.86
68844;DHT22;55850;51.244;6.824;2022-09-09T00:53:51;17.94;74.13
68844;DHT22;55850;51.244;6.824;2022-09-09T00:59:11;17.93;74.17
68844;DHT22;55850;51.244;6.824;2022-09-09T01:04:29;17.85;74.61
68844;DHT22;55850;51.244;6.824;2022-09-09T01:09:44;17.66;75.14
68844;DHT22;55850;51.244;6.824;2022-09-09T01:15:00;17.56;75.14
68844;DHT22;55850;51.244;6.824;2022-09-09T01:20:13;17.80;74.80
68844;DHT22;55850;51.244;6.824;2022-09-09T01:26:07;17.76;74.85
68844;DHT22;55850;51.244;6.824;2022-09-09T01:31:18;17.75;74.91
68844;DHT22;55850;51.244;6.824;2022-09-09T01:36:29;17.72;74.64
68844;DHT22;55850;51.244;6.824;2022-09-09T01:41:40;17.45;76.14
68844;DHT22;55850;51.244;6.824;2022-09-09T01:46:48;17.42;76.07
68844;DHT22;55850;51.244;6.824;2022-09-09T01:51:56;17.42;76.17
68844;DHT22;55850;51.244;6.824;2022-09-09T01:57:16;17.73;75.11
68844;DHT22;55850;51.244;6.824;2022-09-09T02:02:27;17.80;74.69
68844;DHT22;55850;51.244;6.824;2022-09-09T02:07:47;17.87;74.58
68844;DHT22;55850;51.244;6.824;2022-09-09T02:13:09;17.79;75.09
68844;DHT22;55850;51.244;6.824;2022-09-09T02:18:22;17.80;74.87
68844;DHT22;55850;51.244;6.824;2022-09-09T02:23:30;17.87;74.71
68844;DHT22;55850;51.244;6.824;2022-09-09T02:28:43;17.90;74.67
68844;DHT22;55850;51.244;6.824;2022-09-09T02:33:53;17.80;75.06
68844;DHT22;55850;51.244;6.824;2022-09-09T02:39:00;17.82;75.03
68844;DHT22;55850;51.244;6.824;2022-09-09T02:44:14;17.82;75.26
68844;DHT22;55850;51.244;6.824;2022-09-09T02:49:30;17.89;75.20
68844;DHT22;55850;51.244;6.824;2022-09-09T02:54:39;17.80;75.14
68844;DHT22;55850;51.244;6.824;2022-09-09T02:59:50;17.90;74.77
68844;DHT22;55850;51.244;6.824;2022-09-09T03:04:57;17.82;75.10
68844;DHT22;55850;51.244;6.824;2022-09-09T03:10:03;17.76;75.13
68844;DHT22;55850;51.244;6.824;2022-09-09T03:15:13;17.72;75.09
68844;DHT22;55850;51.244;6.824;2022-09-09T03:20:20;17.68;74.86
68844;DHT22;55850;51.244;6.824;2022-09-09T03:25:26;17.96;74.16
68844;DHT22;55850;51.244;6.824;2022-09-09T03:30:35;17.86;73.77
68844;DHT22;55850;51.244;6.824;2022-09-09T03:35:45;17.80;74.32
68844;DHT22;55850;51.244;6.824;2022-09-09T03:40:56;17.76;74.34
68844;DHT22;55850;51.244;6.824;2022-09-09T03:46:05;17.82;74.15
68844;DHT22;55850;51.244;6.824;2022-09-09T03:51:12;17.79;74.41
68844;DHT22;55850;51.244;6.824;2022-09-09T03:56:17;17.65;74.67
68844;DHT22;55850;51.244;6.824;2022-09-09T04:01:27;17.59;74.69
68844;DHT22;55850;51.244;6.824;2022-09-09T04:06:33;17.73;74.37
68844;DHT22;55850;51.244;6.824;2022-09-09T04:11:39;17.79;74.33
68844;DHT22;55850;51.244;6.824;2022-09-09T04:16:47;17.83;74.13
68844;DHT22;55850;51.244;6.824;2022-09-09T04:21:53;17.61;74.82
68844;DHT22;55850;51.244;6.824;2022-09-09T04:26:59;17.63;75.08
68844;DHT22;55850;51.244;6.824;2022-09-09T04:32:08;17.66;75.00
68844;DHT22;55850;51.244;6.824;2022-09-09T04:37:15;17.63;75.39
68844;DHT22;55850;51.244;6.824;2022-09-09T04:42:21;17.75;74.65
68844;DHT22;55850;51.244;6.824;2022-09-09T04:47:30;17.69;74.58
68844;DHT22;55850;51.244;6.824;2022-09-09T04:52:37;17.65;73.67
68844;DHT22;55850;51.244;6.824;2022-09-09T04:57:43;17.86;73.45
68844;DHT22;55850;51.244;6.824;2022-09-09T05:02:52;17.79;73.44
68844;DHT22;55850;51.244;6.824;2022-09-09T05:08:03;17.89;73.08
68844;DHT22;55850;51.244;6.824;2022-09-09T05:13:09;17.97;72.52
68844;DHT22;55850;51.244;6.824;2022-09-09T05:18:19;18.00;72.37
68844;DHT22;55850;51.244;6.824;2022-09-09T05:23:25;17.93;72.35
68844;DHT22;55850;51.244;6.824;2022-09-09T05:28:34;17.93;72.25
68844;DHT22;55850;51.244;6.824;2022-09-09T05:33:46;17.96;72.23
68844;DHT22;55850;51.244;6.824;2022-09-09T05:38:52;17.97;72.31
68844;DHT22;55850;51.244;6.824;2022-09-09T05:44:01;18.21;72.33
68844;DHT22;55850;51.244;6.824;2022-09-09T05:49:14;18.26;72.37
68844;DHT22;55850;51.244;6.824;2022-09-09T05:54:22;18.38;72.25
68844;DHT22;55850;51.244;6.824;2022-09-09T05:59:30;18.26;72.74
68844;DHT22;55850;51.244;6.824;2022-09-09T06:04:39;18.13;73.08
68844;DHT22;55850;51.244;6.824;2022-09-09T06:09:46;18.44;72.33
68844;DHT22;55850;51.244;6.824;2022-09-09T06:14:53;18.44;72.33
68844;DHT22;55850;51.244;6.824;2022-09-09T06:20:03;18.45;72.30
68844;DHT22;55850;51.244;6.824;2022-09-09T06:25:09;18.34;71.17
68844;DHT22;55850;51.244;6.824;2022-09-09T06:30:15;18.54;70.33
68844;DHT22;55850;51.244;6.824;2022-09-09T06:35:25;18.57;69.86
68844;DHT22;55850;51.244;6.824;2022-09-09T06:40:31;18.40;69.75
68844;DHT22;55850;51.244;6.824;2022-09-09T06:45:37;18.52;69.37
68844;DHT22;55850;51.244;6.824;2022-09-09T06:50:46;18.81;68.20
68844;DHT22;55850;51.244;6.824;2022-09-09T06:55:52;18.88;68.66
68844;DHT22;55850;51.244;6.824;2022-09-09T07:01:03;18.92;68.18
68844;DHT22;55850;51.244;6.824;2022-09-09T07:06:17;18.82;68.00
68844;DHT22;55850;51.244;6.824;2022-09-09T07:11:25;18.86;68.12
68844;DHT22;55850;51.244;6.824;2022-09-09T07:16:33;18.92;67.49
68844;DHT22;55850;51.244;6.824;2022-09-09T07:21:43;18.95;67.46
68844;DHT22;55850;51.244;6.824;2022-09-09T07:26:52;18.78;68.10
68844;DHT22;55850;51.244;6.824;2022-09-09T07:31:58;18.96;67.54
68844;DHT22;55850;51.244;6.824;2022-09-09T07:37:11;19.19;66.95
68844;DHT22;55850;51.244;6.824;2022-09-09T07:42:19;19.27;66.38
68844;DHT22;55850;51.244;6.824;2022-09-09T07:47:24;19.54;65.96
68844;DHT22;55850;51.244;6.824;2022-09-09T07:52:33;19.77;65.88
68844;DHT22;55850;51.244;6.824;2022-09-09T07:57:41;19.73;65.43
68844;DHT22;55850;51.244;6.824;2022-09-09T08:02:47;19.53;64.43
68844;DHT22;55850;51.244;6.824;2022-09-09T08:07:55;19.58;64.48
68844;DHT22;55850;51.244;6.824;2022-09-09T08:13:01;19.61;63.76
68844;DHT22;55850;51.244;6.824;2022-09-09T08:18:19;19.54;63.79
68844;DHT22;55850;51.244;6.824;2022-09-09T08:23:28;19.55;63.01
68844;DHT22;55850;51.244;6.824;2022-09-09T08:28:34;19.49;63.06
68844;DHT22;55850;51.244;6.824;2022-09-09T08:33:39;19.82;61.90
68844;DHT22;55850;51.244;6.824;2022-09-09T08:38:51;20.29;61.62
68844;DHT22;55850;51.244;6.824;2022-09-09T08:44:05;20.04;60.40
68844;DHT22;55850;51.244;6.824;2022-09-09T08:49:29;20.23;60.85
68844;DHT22;55850;51.244;6.824;2022-09-09T08:54:46;20.01;60.47
68844;DHT22;55850;51.244;6.824;2022-09-09T08:59:56;20.28;60.28
68844;DHT22;55850;51.244;6.824;2022-09-09T09:05:19;20.33;60.52
68844;DHT22;55850;51.244;6.824;2022-09-09T09:10:44;20.15;60.07
68844;DHT22;55850;51.244;6.824;2022-09-09T09:16:02;20.18;60.27
68844;DHT22;55850;51.244;6.824;2022-09-09T09:21:16;20.14;60.45
68844;DHT22;55850;51.244;6.824;2022-09-09T09:26:30;20.09;60.33
68844;DHT22;55850;51.244;6.824;2022-09-09T09:31:38;19.92;60.61
68844;DHT22;55850;51.244;6.824;2022-09-09T09:36:46;20.08;60.05
68844;DHT22;55850;51.244;6.824;2022-09-09T09:42:08;20.62;58.56
68844;DHT22;55850;51.244;6.824;2022-09-09T09:47:22;21.43;57.78
68844;DHT22;55850;51.244;6.824;2022-09-09T09:52:36;22.30;53.45
68844;DHT22;55850;51.244;6.824;2022-09-09T09:57:48;21.97;55.45
68844;DHT22;55850;51.244;6.824;2022-09-09T10:02:55;21.75;55.88
68844;DHT22;55850;51.244;6.824;2022-09-09T10:08:10;21.94;56.01
68844;DHT22;55850;51.244;6.824;2022-09-09T10:13:25;21.67;56.12
68844;DHT22;55850;51.244;6.824;2022-09-09T10:18:48;22.21;55.82
68844;DHT22;55850;51.244;6.824;2022-09-09T10:24:09;21.86;56.15
68844;DHT22;55850;51.244;6.824;2022-09-09T10:29:37;21.55;55.92
68844;DHT22;55850;51.244;6.824;2022-09-09T10:34:55;21.67;55.68
68844;DHT22;55850;51.244;6.824;2022-09-09T10:40:12;21.28;56.90
68844;DHT22;55850;51.244;6.824;2022-09-09T10:45:29;21.46;56.59
68844;DHT22;55850;51.244;6.824;2022-09-09T10:50:46;21.51;57.08
68844;DHT22;55850;51.244;6.824;2022-09-09T10:56:08;21.14;57.03
68844;DHT22;55850;51.244;6.824;2022-09-09T11:01:21;21.43;58.32
68844;DHT22;55850;51.244;6.824;2022-09-09T11:06:32;21.49;57.66
68844;DHT22;55850;51.244;6.824;2022-09-09T11:11:44;21.43;56.72
68844;DHT22;55850;51.244;6.824;2022-09-09T11:16:58;21.39;57.02
68844;DHT22;55850;51.244;6.824;2022-09-09T11:22:08;21.04;58.82
68844;DHT22;55850;51.244;6.824;2022-09-09T11:27:23;21.12;58.89
68844;DHT22;55850;51.244;6.824;2022-09-09T11:32:53;21.03;60.94
68844;DHT22;55850;51.244;6.824;2022-09-09T11:38:21;20.95;62.33
68844;DHT22;55850;51.244;6.824;2022-09-09T11:43:31;21.20;60.63
68844;DHT22;55850;51.244;6.824;2022-09-09T11:48:41;21.42;59.25
68844;DHT22;55850;51.244;6.824;2022-09-09T11:53:50;20.87;60.67
68844;DHT22;55850;51.244;6.824;2022-09-09T11:58:59;20.79;60.99
68844;DHT22;55850;51.244;6.824;2022-09-09T12:04:36;20.70;60.82
68844;DHT22;55850;51.244;6.824;2022-09-09T12:09:46;20.64;60.22
68844;DHT22;55850;51.244;6.824;2022-09-09T12:20:23;21.27;61.85
68844;DHT22;55850;51.244;6.824;2022-09-09T12:25:41;21.89;60.28
68844;DHT22;55850;51.244;6.824;2022-09-09T12:30:53;21.90;58.60
68844;DHT22;55850;51.244;6.824;2022-09-09T12:36:04;21.63;58.28
68844;DHT22;55850;51.244;6.824;2022-09-09T12:41:23;21.56;57.11
68844;DHT22;55850;51.244;6.824;2022-09-09T12:46:36;21.94;57.09
68844;DHT22;55850;51.244;6.824;2022-09-09T12:51:45;21.71;57.31
68844;DHT22;55850;51.244;6.824;2022-09-09T12:56:51;21.71;58.20
68844;DHT22;55850;51.244;6.824;2022-09-09T13:01:57;21.73;58.42
68844;DHT22;55850;51.244;6.824;2022-09-09T13:07:09;21.55;58.28
68844;DHT22;55850;51.244;6.824;2022-09-09T13:12:17;21.21;61.20
68844;DHT22;55850;51.244;6.824;2022-09-09T13:17:24;20.81;63.31
68844;DHT22;55850;51.244;6.824;2022-09-09T13:22:35;21.22;61.91
68844;DHT22;55850;51.244;6.824;2022-09-09T13:27:50;21.08;62.54
68844;DHT22;55850;51.244;6.824;2022-09-09T13:33:04;21.17;63.04
68844;DHT22;55850;51.244;6.824;2022-09-09T13:38:13;21.11;61.85
68844;DHT22;55850;51.244;6.824;2022-09-09T13:43:22;21.35;59.92
68844;DHT22;55850;51.244;6.824;2022-09-09T13:48:28;21.42;59.19
68844;DHT22;55850;51.244;6.824;2022-09-09T13:53:37;21.27;60.45
68844;DHT22;55850;51.244;6.824;2022-09-09T13:58:43;21.30;60.65
68844;DHT22;55850;51.244;6.824;2022-09-09T14:03:49;21.38;60.85
68844;DHT22;55850;51.244;6.824;2022-09-09T14:08:58;21.38;62.27
68844;DHT22;55850;51.244;6.824;2022-09-09T14:14:04;21.65;61.32
68844;DHT22;55850;51.244;6.824;2022-09-09T14:19:10;22.03;60.74
68844;DHT22;55850;51.244;6.824;2022-09-09T14:24:18;22.20;59.03
68844;DHT22;55850;51.244;6.824;2022-09-09T14:29:23;22.10;59.42
68844;DHT22;55850;51.244;6.824;2022-09-09T14:34:30;21.82;60.03
68844;DHT22;55850;51.244;6.824;2022-09-09T14:39:38;21.66;59.69
68844;DHT22;55850;51.244;6.824;2022-09-09T14:44:46;21.01;59.56
68844;DHT22;55850;51.244;6.824;2022-09-09T14:49:53;21.01;58.39
68844;DHT22;55850;51.244;6.824;2022-09-09T14:55:02;20.56;64.47
68844;DHT22;55850;51.244;6.824;2022-09-09T15:00:10;20.43;65.35
68844;DHT22;55850;51.244;6.824;2022-09-09T15:05:16;19.67;68.35
68844;DHT22;55850;51.244;6.824;2022-09-09T15:10:25;19.50;68.07
68844;DHT22;55850;51.244;6.824;2022-09-09T15:15:31;19.27;68.69
68844;DHT22;55850;51.244;6.824;2022-09-09T15:20:37;19.43;68.57
68844;DHT22;55850;51.244;6.824;2022-09-09T15:25:54;19.53;69.08
68844;DHT22;55850;51.244;6.824;2022-09-09T15:31:05;19.30;70.64
68844;DHT22;55850;51.244;6.824;2022-09-09T15:36:16;19.33;70.63
68844;DHT22;55850;51.244;6.824;2022-09-09T15:41:25;18.84;72.16
68844;DHT22;55850;51.244;6.824;2022-09-09T15:46:32;18.71;73.29
68844;DHT22;55850;51.244;6.824;2022-09-09T15:51:41;18.86;72.66
68844;DHT22;55850;51.244;6.824;2022-09-09T15:56:53;18.58;74.19
68844;DHT22;55850;51.244;6.824;2022-09-09T16:01:58;18.31;75.24
68844;DHT22;55850;51.244;6.824;2022-09-09T16:07:05;18.28;75.08
68844;DHT22;55850;51.244;6.824;2022-09-09T16:12:14;18.49;75.23
68844;DHT22;55850;51.244;6.824;2022-09-09T16:17:20;18.58;75.16
68844;DHT22;55850;51.244;6.824;2022-09-09T16:22:26;18.68;75.00
68844;DHT22;55850;51.244;6.824;2022-09-09T16:27:34;18.33;76.55
68844;DHT22;55850;51.244;6.824;2022-09-09T16:32:40;18.37;77.11
68844;DHT22;55850;51.244;6.824;2022-09-09T16:37:47;18.54;76.31
68844;DHT22;55850;51.244;6.824;2022-09-09T16:42:55;18.57;75.79
68844;DHT22;55850;51.244;6.824;2022-09-09T16:48:01;18.18;76.73
68844;DHT22;55850;51.244;6.824;2022-09-09T16:53:06;17.94;77.57
68844;DHT22;55850;51.244;6.824;2022-09-09T16:58:15;17.83;77.60
68844;DHT22;55850;51.244;6.824;2022-09-09T17:03:21;17.90;77.88
68844;DHT22;55850;51.244;6.824;2022-09-09T17:08:27;17.94;77.79
68844;DHT22;55850;51.244;6.824;2022-09-09T17:13:36;17.94;77.71
68844;DHT22;55850;51.244;6.824;2022-09-09T17:18:41;17.90;78.07
68844;DHT22;55850;51.244;6.824;2022-09-09T17:23:48;17.79;78.58
68844;DHT22;55850;51.244;6.824;2022-09-09T17:28:57;17.80;78.76
68844;DHT22;55850;51.244;6.824;2022-09-09T17:34:04;17.97;78.81
68844;DHT22;55850;51.244;6.824;2022-09-09T17:39:10;17.87;79.29
68844;DHT22;55850;51.244;6.824;2022-09-09T17:44:18;17.94;79.41
68844;DHT22;55850;51.244;6.824;2022-09-09T17:49:24;17.94;79.17
68844;DHT22;55850;51.244;6.824;2022-09-09T17:54:29;17.86;79.79
68844;DHT22;55850;51.244;6.824;2022-09-09T17:59:38;17.82;79.87
68844;DHT22;55850;51.244;6.824;2022-09-09T18:04:44;17.91;79.50
68844;DHT22;55850;51.244;6.824;2022-09-09T18:09:50;17.96;79.15
68844;DHT22;55850;51.244;6.824;2022-09-09T18:14:59;17.89;79.46
68844;DHT22;55850;51.244;6.824;2022-09-09T18:20:06;17.76;79.12
68844;DHT22;55850;51.244;6.824;2022-09-09T18:25:12;17.90;78.81
68844;DHT22;55850;51.244;6.824;2022-09-09T18:30:20;17.77;79.22
68844;DHT22;55850;51.244;6.824;2022-09-09T18:35:26;17.89;78.97
68844;DHT22;55850;51.244;6.824;2022-09-09T18:40:32;17.87;79.10
68844;DHT22;55850;51.244;6.824;2022-09-09T18:45:40;17.93;78.87
68844;DHT22;55850;51.244;6.824;2022-09-09T18:50:45;18.06;78.21
68844;DHT22;55850;51.244;6.824;2022-09-09T18:55:57;18.08;78.36
68844;DHT22;55850;51.244;6.824;2022-09-09T19:01:09;18.06;78.51
68844;DHT22;55850;51.244;6.824;2022-09-09T19:06:17;17.96;78.73
68844;DHT22;55850;51.244;6.824;2022-09-09T19:11:24;17.79;78.97
68844;DHT22;55850;51.244;6.824;2022-09-09T19:16:34;17.72;79.48
68844;DHT22;55850;51.244;6.824;2022-09-09T19:21:41;17.77;77.83
68844;DHT22;55850;51.244;6.824;2022-09-09T19:26:48;17.65;78.68
68844;DHT22;55850;51.244;6.824;2022-09-09T19:31:57;17.63;78.55
68844;DHT22;55850;51.244;6.824;2022-09-09T19:37:23;17.58;78.03
68844;DHT22;55850;51.244;6.824;2022-09-09T19:42:29;17.58;78.31
68844;DHT22;55850;51.244;6.824;2022-09-09T19:47:37;17.56;78.41
68844;DHT22;55850;51.244;6.824;2022-09-09T19:52:44;17.50;78.64
68844;DHT22;55850;51.244;6.824;2022-09-09T19:57:49;17.53;78.40
68844;DHT22;55850;51.244;6.824;2022-09-09T20:02:58;17.66;78.53
68844;DHT22;55850;51.244;6.824;2022-09-09T20:08:20;17.69;78.34
68844;DHT22;55850;51.244;6.824;2022-09-09T20:13:26;17.62;77.93
68844;DHT22;55850;51.244;6.824;2022-09-09T20:18:37;17.62;77.77
68844;DHT22;55850;51.244;6.824;2022-09-09T20:23:44;17.66;78.36
68844;DHT22;55850;51.244;6.824;2022-09-09T20:28:51;17.69;78.98
68844;DHT22;55850;51.244;6.824;2022-09-09T20:34:00;17.72;78.28
68844;DHT22;55850;51.244;6.824;2022-09-09T20:39:06;17.87;77.87
68844;DHT22;55850;51.244;6.824;2022-09-09T20:44:15;17.75;77.30
68844;DHT22;55850;51.244;6.824;2022-09-09T20:49:23;17.82;77.43
68844;DHT22;55850;51.244;6.824;2022-09-09T20:54:29;17.79;76.98
68844;DHT22;55850;51.244;6.824;2022-09-09T20:59:36;17.69;77.16
68844;DHT22;55850;51.244;6.824;2022-09-09T21:04:45;17.75;76.92
68844;DHT22;55850;51.244;6.824;2022-09-09T21:09:54;17.75;77.28
68844;DHT22;55850;51.244;6.824;2022-09-09T21:15:00;17.61;77.65
68844;DHT22;55850;51.244;6.824;2022-09-09T21:20:09;17.66;77.08
68844;DHT22;55850;51.244;6.824;2022-09-09T21:25:15;17.62;77.10
68844;DHT22;55850;51.244;6.824;2022-09-09T21:30:22;17.52;76.98
68844;DHT22;55850;51.244;6.824;2022-09-09T21:35:45;17.42;77.22
68844;DHT22;55850;51.244;6.824;2022-09-09T21:40:51;17.39;77.49
68844;DHT22;55850;51.244;6.824;2022-09-09T21:45:57;17.38;77.20
68844;DHT22;55850;51.244;6.824;2022-09-09T21:51:10;17.27;77.63
68844;DHT22;55850;51.244;6.824;2022-09-09T21:56:18;17.28;77.43
68844;DHT22;55850;51.244;6.824;2022-09-09T22:01:25;17.32;77.53
68844;DHT22;55850;51.244;6.824;2022-09-09T22:06:36;17.32;77.01
68844;DHT22;55850;51.244;6.824;2022-09-09T22:11:42;17.35;77.11
68844;DHT22;55850;51.244;6.824;2022-09-09T22:16:47;17.36;77.17
68844;DHT22;55850;51.244;6.824;2022-09-09T22:21:56;17.29;76.75
68844;DHT22;55850;51.244;6.824;2022-09-09T22:27:02;17.27;76.83
68844;DHT22;55850;51.244;6.824;2022-09-09T22:32:08;17.29;76.99
68844;DHT22;55850;51.244;6.824;2022-09-09T22:37:17;17.32;76.69
68844;DHT22;55850;51.244;6.824;2022-09-09T22:42:24;17.39;76.78
68844;DHT22;55850;51.244;6.824;2022-09-09T22:47:29;17.38;76.26
68844;DHT22;55850;51.244;6.824;2022-09-09T22:52:39;17.42;76.78
68844;DHT22;55850;51.244;6.824;2022-09-09T22:57:44;17.39;76.17
68844;DHT22;55850;51.244;6.824;2022-09-09T23:02:50;17.42;75.68
68844;DHT22;55850;51.244;6.824;2022-09-09T23:07:58;17.38;75.73
68844;DHT22;55850;51.244;6.824;2022-09-09T23:13:04;17.31;75.28
68844;DHT22;55850;51.244;6.824;2022-09-09T23:18:11;17.31;76.19
68844;DHT22;55850;51.244;6.824;2022-09-09T23:23:19;17.22;75.85
68844;DHT22;55850;51.244;6.824;2022-09-09T23:28:29;17.15;75.69
68844;DHT22;55850;51.244;6.824;2022-09-09T23:33:36;17.19;75.34
68844;DHT22;55850;51.244;6.824;2022-09-09T23:38:45;17.15;75.31
68844;DHT22;55850;51.244;6.824;2022-09-09T23:43:52;17.27;75.09
68844;DHT22;55850;51.244;6.824;2022-09-09T23:48:58;17.11;76.42
68844;DHT22;55850;51.244;6.824;2022-09-09T23:54:06;17.19;75.22
68844;DHT22;55850;51.244;6.824;2022-09-09T23:59:13;17.31;74.96
